KHSV/HSV METAR and TAF weather

Enter ICAO airport designator
Station Type Date Time Source
KHSV METAR 2022/12/05 13:53 UTC NOAA

KHSV 051353Z 11006KT 1 1/2SM -RA BR FEW008 OVC013 09/09 A3006 RMK AO2 SFC VIS 2 SLP177 P0006 T00890089


Station Type Date Time Source
KHSV Decoded METAR 2022/12/05 13:53 UTC NOAA

HUNTSVILLE INTERNATIONAL JONES FIELD, AL, United States (KHSV) 34-39N 086-47W 191M
Dec 05, 2022 - 08:53 AM EST / 2022.12.05 1353 UTC
Wind: from the ESE (110 degrees) at 7 MPH (6 KT):0
Visibility: 1 1/2 mile(s):0
Sky conditions: overcast
Weather: light rain; mist
Precipitation last hour: 0.06 inches
Temperature: 48.0 F (8.9 C)
Dew Point: 48.0 F (8.9 C)
Relative Humidity: 100%
Pressure (altimeter): 30.06 in. Hg (1017 hPa)
ob: KHSV 051353Z 11006KT 1 1/2SM -RA BR FEW008 OVC013 09/09 A3006 RMK AO2 SFC VIS 2 SLP177 P0006 T00890089
cycle: 14

Station Type Date Time Source
KHSV TAF 2022/12/05 14:54 UTC NOAA

TAF
AMD KHSV 051353Z 0514/0612 VRB03KT 4SM -SHRA BR OVC015
TEMPO 0514/0516 1SM SHRA BR OVC009
FM051600 VRB04KT 3SM SHRA BR OVC009
FM052000 14007KT 2SM SHRA BR OVC007 PROB30 0600/0606 1SM TSRA BR OVC005CB
FM060600 19006KT 3SM -SHRA BR BKN006 WS020/22035KT

Example: see airport list